Time;durP1;ratioP1;P1;durP2;ratioP2;P2;SDS_P1;SDS_P2;PMS_P1;PMS_P2;Temp;Humidity;BMP_temperature;BMP_pressure;BME280_temperature;BME280_humidity;BME280_pressure;Samples;Min_cycle;Max_cycle;Signal;HPM_P1;HPM_P2
2024/01/24 00:02:11;;;;;;;5.00;1.48;;;23.00;45.40;;;;;;5053567;28;20230;-53
2024/01/24 00:04:37;;;;;;;3.65;1.30;;;22.90;45.40;;;;;;5054014;28;20242;-55
2024/01/24 00:07:04;;;;;;;3.58;1.15;;;22.90;45.40;;;;;;5053867;28;20184;-53
2024/01/24 00:09:33;;;;;;;6.07;1.48;;;22.90;45.40;;;;;;5053100;28;20266;-55
2024/01/24 00:12:00;;;;;;;3.53;1.60;;;22.90;45.40;;;;;;5053817;28;20257;-55
2024/01/24 00:14:28;;;;;;;5.28;1.60;;;22.90;45.50;;;;;;5053768;28;20269;-54
2024/01/24 00:16:55;;;;;;;3.97;1.50;;;22.90;45.50;;;;;;5053059;28;20283;-55
2024/01/24 00:19:22;;;;;;;4.00;1.40;;;22.90;45.60;;;;;;5053327;28;20688;-54
2024/01/24 00:21:49;;;;;;;4.75;1.30;;;22.80;45.50;;;;;;5053580;28;20229;-51
2024/01/24 00:24:16;;;;;;;4.97;1.95;;;22.80;45.60;;;;;;5053226;28;20303;-56
2024/01/24 00:26:43;;;;;;;3.97;1.55;;;22.80;45.70;;;;;;5053547;28;20184;-52
2024/01/24 00:29:10;;;;;;;5.15;1.30;;;22.80;45.70;;;;;;5053304;28;20318;-53
2024/01/24 00:31:38;;;;;;;4.82;1.65;;;22.90;45.70;;;;;;5053161;28;20270;-54
2024/01/24 00:34:05;;;;;;;3.05;1.40;;;22.90;45.60;;;;;;5053031;28;20223;-55
2024/01/24 00:36:32;;;;;;;5.13;1.80;;;22.90;45.60;;;;;;5053314;28;20247;-55
2024/01/24 00:39:00;;;;;;;5.80;1.70;;;22.90;45.60;;;;;;5052826;28;20274;-55
2024/01/24 00:41:27;;;;;;;3.72;1.30;;;22.90;45.70;;;;;;5052856;28;20720;-53
2024/01/24 00:43:54;;;;;;;6.68;1.60;;;22.90;45.70;;;;;;5053163;28;20191;-55
2024/01/24 00:46:21;;;;;;;4.13;1.67;;;22.90;45.70;;;;;;5052816;28;20190;-53
2024/01/24 00:48:49;;;;;;;5.35;1.67;;;22.90;45.70;;;;;;5052747;28;20557;-55
2024/01/24 00:51:16;;;;;;;3.63;1.50;;;23.00;45.70;;;;;;5053242;28;20294;-55
2024/01/24 00:53:49;;;;;;;6.35;2.10;;;23.00;45.60;;;;;;5052617;28;20184;-52
2024/01/24 00:56:17;;;;;;;5.30;1.77;;;23.00;45.60;;;;;;5052671;28;20188;-56
2024/01/24 00:58:44;;;;;;;3.40;1.35;;;23.00;45.60;;;;;;5052803;28;20188;-55
2024/01/24 01:01:11;;;;;;;6.05;2.00;;;23.10;45.60;;;;;;5052279;28;20278;-55
2024/01/24 01:03:38;;;;;;;6.95;2.17;;;23.00;45.50;;;;;;5052779;28;20191;-56
2024/01/24 01:06:07;;;;;;;6.88;1.92;;;23.00;45.50;;;;;;5052765;28;20215;-51
2024/01/24 01:08:34;;;;;;;7.35;2.33;;;23.00;45.60;;;;;;5051838;28;20293;-53
2024/01/24 01:11:01;;;;;;;7.55;1.85;;;23.00;45.60;;;;;;5051470;28;20642;-53
2024/01/24 01:13:28;;;;;;;7.25;2.15;;;23.00;45.60;;;;;;5052625;28;20237;-55
2024/01/24 01:15:55;;;;;;;7.43;2.20;;;22.90;45.60;;;;;;5052099;28;20772;-56
2024/01/24 01:18:22;;;;;;;6.22;1.98;;;22.90;45.60;;;;;;5052496;28;20196;-55
2024/01/24 01:20:49;;;;;;;6.15;1.98;;;22.90;45.60;;;;;;5052664;28;20253;-52
2024/01/24 01:23:17;;;;;;;7.47;2.22;;;22.90;45.70;;;;;;5052224;28;20386;-54
2024/01/24 01:25:44;;;;;;;8.38;2.40;;;22.90;45.70;;;;;;5052293;28;20221;-56
2024/01/24 01:28:11;;;;;;;10.60;2.05;;;22.90;45.80;;;;;;5052345;28;20610;-55
2024/01/24 01:30:38;;;;;;;7.47;2.45;;;22.80;45.60;;;;;;5052275;28;20222;-55
2024/01/24 01:33:05;;;;;;;6.03;1.98;;;22.80;45.80;;;;;;5052259;28;20188;-55
2024/01/24 01:35:33;;;;;;;6.10;2.25;;;22.80;45.80;;;;;;5052546;28;20302;-55
2024/01/24 01:38:00;;;;;;;7.82;2.58;;;22.80;45.90;;;;;;5051628;28;20750;-53
2024/01/24 01:40:29;;;;;;;7.70;2.03;;;22.80;45.80;;;;;;5052151;28;20298;-55
2024/01/24 01:42:56;;;;;;;9.43;2.38;;;22.80;45.90;;;;;;5052341;28;20303;-53
2024/01/24 01:45:23;;;;;;;6.20;2.17;;;22.90;45.90;;;;;;5051854;28;20322;-55
2024/01/24 01:47:52;;;;;;;7.05;2.20;;;22.80;45.80;;;;;;5052238;28;20223;-56
2024/01/24 01:50:19;;;;;;;6.50;2.30;;;22.80;45.80;;;;;;5052004;28;20231;-55
2024/01/24 01:52:47;;;;;;;8.32;2.47;;;22.90;45.80;;;;;;5051567;28;20257;-55
2024/01/24 01:55:15;;;;;;;7.55;2.40;;;22.90;45.80;;;;;;5052243;28;20306;-54
2024/01/24 01:57:45;;;;;;;5.88;2.35;;;22.90;45.80;;;;;;5052065;28;20286;-54
2024/01/24 02:00:20;;;;;;;8.75;2.28;;;22.90;45.80;;;;;;5051617;28;20728;-52
2024/01/24 02:02:46;;;;;;;7.50;2.33;;;22.90;45.80;;;;;;5052094;28;20226;-49
2024/01/24 02:05:14;;;;;;;7.05;2.13;;;22.90;45.70;;;;;;5052063;28;20223;-54
2024/01/24 02:07:43;;;;;;;10.18;2.75;;;22.90;45.70;;;;;;5051772;28;20567;-53
2024/01/24 02:10:11;;;;;;;7.82;2.35;;;22.90;45.60;;;;;;5052002;28;20314;-56
2024/01/24 02:12:37;;;;;;;6.80;2.40;;;23.00;45.60;;;;;;5052004;28;20744;-53
2024/01/24 02:15:07;;;;;;;9.18;2.58;;;23.00;45.60;;;;;;5051690;28;20298;-55
2024/01/24 02:17:34;;;;;;;11.82;2.58;;;23.00;45.60;;;;;;5051564;28;20668;-53
2024/01/24 02:20:02;;;;;;;6.60;2.40;;;22.90;45.50;;;;;;5051858;28;20299;-56
2024/01/24 02:22:29;;;;;;;9.00;2.97;;;22.90;45.50;;;;;;5053362;28;20223;-52
2024/01/24 02:24:57;;;;;;;6.20;2.25;;;22.90;45.60;;;;;;5055886;28;20215;-54
2024/01/24 02:27:24;;;;;;;7.38;2.50;;;22.90;45.60;;;;;;5055781;28;20270;-53
2024/01/24 02:29:51;;;;;;;8.25;2.50;;;22.90;45.60;;;;;;5055385;28;20340;-55
2024/01/24 02:32:18;;;;;;;10.73;2.55;;;22.80;45.60;;;;;;5055747;28;20191;-54
2024/01/24 02:34:45;;;;;;;11.65;2.75;;;22.80;45.60;;;;;;5055637;28;20322;-55
2024/01/24 02:37:11;;;;;;;8.40;2.40;;;22.80;45.70;;;;;;5055192;28;20621;-55
2024/01/24 02:39:39;;;;;;;7.28;2.40;;;22.80;45.70;;;;;;5055513;28;20211;-55
2024/01/24 02:42:08;;;;;;;9.75;2.60;;;22.80;45.70;;;;;;5055138;28;20216;-55
2024/01/24 02:44:35;;;;;;;7.43;2.33;;;22.80;45.80;;;;;;5055055;28;20215;-53
2024/01/24 02:47:02;;;;;;;11.13;3.20;;;22.80;45.70;;;;;;5055135;28;20811;-52
2024/01/24 02:49:29;;;;;;;8.75;2.67;;;22.80;45.70;;;;;;5055309;28;20242;-54
2024/01/24 02:52:01;;;;;;;10.13;2.70;;;22.80;45.70;;;;;;5054986;28;20274;-52
2024/01/24 02:54:28;;;;;;;9.93;2.95;;;22.80;45.60;;;;;;5055229;28;20373;-55
2024/01/24 02:56:55;;;;;;;9.95;2.97;;;22.80;45.60;;;;;;5053438;28;20192;-55
2024/01/24 02:59:23;;;;;;;9.43;2.63;;;22.90;45.60;;;;;;5054647;28;20302;-54
2024/01/24 03:01:50;;;;;;;7.88;2.40;;;22.90;45.60;;;;;;5054738;28;20226;-55
2024/01/24 03:04:17;;;;;;;7.85;2.65;;;22.90;45.50;;;;;;5055187;28;20278;-54
2024/01/24 03:06:43;;;;;;;10.20;3.03;;;22.80;45.50;;;;;;5054643;28;20270;-53
2024/01/24 03:09:11;;;;;;;11.05;3.20;;;22.80;45.50;;;;;;5054322;28;20310;-53
2024/01/24 03:11:38;;;;;;;9.50;2.90;;;22.80;45.50;;;;;;5054822;28;20199;-55
2024/01/24 03:14:05;;;;;;;10.77;3.17;;;22.80;45.50;;;;;;5054484;28;20266;-53
2024/01/24 03:16:33;;;;;;;9.45;2.50;;;22.90;45.50;;;;;;5054726;28;20278;-55
2024/01/24 03:19:00;;;;;;;9.98;2.85;;;22.90;45.40;;;;;;5054573;28;20291;-54
2024/01/24 03:21:27;;;;;;;12.27;3.17;;;22.90;45.40;;;;;;5054258;28;20318;-55
2024/01/24 03:23:54;;;;;;;14.25;3.40;;;22.90;45.40;;;;;;5054590;28;20191;-57
2024/01/24 03:26:21;;;;;;;11.48;2.97;;;22.90;45.40;;;;;;5054296;28;20659;-53
2024/01/24 03:28:48;;;;;;;11.60;3.50;;;22.90;45.40;;;;;;5054257;28;20184;-54
2024/01/24 03:31:15;;;;;;;11.00;3.13;;;22.90;45.30;;;;;;5054568;28;20230;-54
2024/01/24 03:33:44;;;;;;;10.70;3.33;;;22.90;45.20;;;;;;5053113;28;20187;-56
2024/01/24 03:36:10;;;;;;;9.90;3.25;;;22.90;45.30;;;;;;5054040;28;20223;-54
2024/01/24 03:38:37;;;;;;;9.13;3.05;;;22.90;45.30;;;;;;5054108;28;20737;-52
2024/01/24 03:41:05;;;;;;;13.25;3.00;;;22.90;45.30;;;;;;5054153;28;20302;-53
2024/01/24 03:43:32;;;;;;;13.18;3.40;;;22.90;45.30;;;;;;5054042;28;20241;-54
2024/01/24 03:45:59;;;;;;;14.02;3.70;;;22.80;45.20;;;;;;5054055;28;20298;-53
2024/01/24 03:48:26;;;;;;;15.43;3.60;;;22.80;45.20;;;;;;5053834;28;20537;-55
2024/01/24 03:50:55;;;;;;;12.70;3.38;;;22.80;45.20;;;;;;5053837;28;20215;-55
2024/01/24 03:53:22;;;;;;;11.30;3.70;;;22.80;45.20;;;;;;5053836;28;20188;-55
2024/01/24 03:55:48;;;;;;;13.20;3.30;;;22.80;45.20;;;;;;5054086;28;20211;-53
2024/01/24 03:58:16;;;;;;;14.18;3.40;;;22.80;45.20;;;;;;5053808;28;20223;-53
2024/01/24 04:00:43;;;;;;;11.80;3.08;;;22.80;45.30;;;;;;5054010;28;20302;-51
2024/01/24 04:03:10;;;;;;;16.63;3.75;;;22.70;45.20;;;;;;5053989;28;20274;-56
2024/01/24 04:05:37;;;;;;;12.90;3.70;;;22.80;45.30;;;;;;5053246;28;20215;-55
2024/01/24 04:08:06;;;;;;;14.02;3.45;;;22.80;45.30;;;;;;5053570;28;20184;-51
2024/01/24 04:10:32;;;;;;;12.95;3.33;;;22.80;45.20;;;;;;5053745;28;20216;-55
2024/01/24 04:12:59;;;;;;;14.98;3.28;;;22.80;45.20;;;;;;5053418;28;20278;-51
2024/01/24 04:15:27;;;;;;;15.52;3.88;;;22.80;45.20;;;;;;5053711;28;20306;-56
2024/01/24 04:17:54;;;;;;;14.05;3.88;;;22.80;45.20;;;;;;5053310;28;20637;-55
2024/01/24 04:20:21;;;;;;;13.15;4.10;;;22.80;45.10;;;;;;5053297;28;20302;-53
2024/01/24 04:22:48;;;;;;;11.80;3.47;;;22.80;45.10;;;;;;5053526;28;20306;-54
2024/01/24 04:25:17;;;;;;;13.75;3.95;;;22.80;45.10;;;;;;5053606;28;20306;-55
2024/01/24 04:27:44;;;;;;;12.73;3.65;;;22.80;45.00;;;;;;5053080;28;20195;-54
2024/01/24 04:30:12;;;;;;;12.65;3.80;;;22.80;44.90;;;;;;5053195;28;20588;-53
2024/01/24 04:32:39;;;;;;;13.70;3.97;;;22.90;44.90;;;;;;5053438;28;20279;-54
2024/01/24 04:35:07;;;;;;;14.45;3.67;;;22.90;44.90;;;;;;5053061;28;20215;-55
2024/01/24 04:37:33;;;;;;;13.73;4.10;;;22.90;44.80;;;;;;5053003;28;20184;-54
2024/01/24 04:40:01;;;;;;;13.85;4.22;;;22.90;44.80;;;;;;5053215;28;20311;-56
2024/01/24 04:42:29;;;;;;;12.23;3.90;;;22.90;44.80;;;;;;5052493;28;20218;-55
2024/01/24 04:44:56;;;;;;;14.32;3.90;;;22.90;44.80;;;;;;5052707;28;20221;-55
2024/01/24 04:47:23;;;;;;;15.65;4.05;;;22.80;44.70;;;;;;5053075;28;20227;-54
2024/01/24 04:49:50;;;;;;;14.50;4.10;;;22.80;44.80;;;;;;5052776;28;20298;-55
2024/01/24 04:52:17;;;;;;;15.77;4.13;;;22.80;44.80;;;;;;5053025;28;20198;-55
2024/01/24 04:54:44;;;;;;;15.35;3.92;;;22.80;44.80;;;;;;5052946;28;20318;-56
2024/01/24 04:57:11;;;;;;;16.00;4.28;;;22.80;44.80;;;;;;5052597;28;20190;-53
2024/01/24 04:59:41;;;;;;;14.93;4.28;;;22.80;44.80;;;;;;5052940;28;20318;-54
2024/01/24 05:02:08;;;;;;;15.60;4.45;;;22.70;44.70;;;;;;5052795;28;20220;-56
2024/01/24 05:04:36;;;;;;;17.90;4.30;;;22.80;44.80;;;;;;5052464;28;20245;-53
2024/01/24 05:07:03;;;;;;;15.30;4.70;;;22.70;44.70;;;;;;5052733;28;20626;-55
2024/01/24 05:09:30;;;;;;;17.15;4.47;;;22.70;44.80;;;;;;5052293;28;20673;-54
2024/01/24 05:11:57;;;;;;;16.02;4.10;;;22.70;45.40;;;;;;5052069;28;20237;-55
2024/01/24 05:14:24;;;;;;;21.48;5.32;;;22.70;44.80;;;;;;5052628;28;20617;-54
2024/01/24 05:16:52;;;;;;;21.10;4.85;;;22.70;44.70;;;;;;5052352;28;20198;-52
2024/01/24 05:19:19;;;;;;;14.77;4.72;;;22.70;44.70;;;;;;5052237;28;20234;-53
2024/01/24 05:21:46;;;;;;;15.82;4.85;;;22.80;44.70;;;;;;5052423;28;20219;-55
2024/01/24 05:24:13;;;;;;;15.45;4.60;;;22.80;44.70;;;;;;5052544;28;20188;-54
2024/01/24 05:26:40;;;;;;;15.50;4.47;;;22.80;44.60;;;;;;5052191;28;20298;-51
2024/01/24 05:29:07;;;;;;;14.48;4.28;;;22.80;44.60;;;;;;5052129;28;20183;-54
2024/01/24 05:31:34;;;;;;;17.00;4.43;;;22.80;44.60;;;;;;5052487;28;20222;-54
2024/01/24 05:34:03;;;;;;;16.30;4.25;;;22.80;44.60;;;;;;5052032;28;20214;-54
2024/01/24 05:36:30;;;;;;;15.25;4.78;;;22.80;44.50;;;;;;5052386;28;20218;-55
2024/01/24 05:38:57;;;;;;;16.95;4.95;;;22.80;45.10;;;;;;5052328;28;20278;-55
2024/01/24 05:41:24;;;;;;;18.10;4.68;;;22.80;44.50;;;;;;5051922;28;20302;-55
2024/01/24 05:43:51;;;;;;;18.90;4.93;;;22.80;44.50;;;;;;5052258;28;20219;-54
2024/01/24 05:46:18;;;;;;;18.38;4.60;;;22.80;44.50;;;;;;5052106;28;20221;-55
2024/01/24 05:48:46;;;;;;;16.15;4.32;;;22.80;44.40;;;;;;5051790;28;20249;-52
2024/01/24 05:51:15;;;;;;;19.55;5.03;;;22.80;44.40;;;;;;5052052;28;20872;-55
2024/01/24 05:53:42;;;;;;;19.10;5.07;;;22.80;44.30;;;;;;5052183;28;20279;-55
2024/01/24 05:56:09;;;;;;;17.52;4.72;;;22.80;44.30;;;;;;5051930;28;20220;-50
2024/01/24 05:58:38;;;;;;;19.10;5.03;;;22.80;44.30;;;;;;5055959;28;20195;-55
2024/01/24 06:01:06;;;;;;;16.13;4.68;;;22.80;44.40;;;;;;5056058;28;20222;-55
2024/01/24 06:03:33;;;;;;;13.05;3.95;;;22.70;44.40;;;;;;5055851;28;20218;-55
2024/01/24 06:06:01;;;;;;;18.90;4.38;;;22.70;44.40;;;;;;5056166;28;20303;-52
2024/01/24 06:08:29;;;;;;;18.45;4.60;;;22.70;44.40;;;;;;5055695;28;20747;-56
2024/01/24 06:10:56;;;;;;;24.73;4.75;;;22.70;44.50;;;;;;5055809;28;20253;-55
2024/01/24 06:13:23;;;;;;;24.50;5.00;;;22.70;44.50;;;;;;5056018;28;20206;-53
2024/01/24 06:15:51;;;;;;;21.00;5.10;;;22.60;44.50;;;;;;5056116;28;20215;-55
2024/01/24 06:18:18;;;;;;;18.90;5.20;;;22.60;44.50;;;;;;5055583;28;20282;-55
2024/01/24 06:20:46;;;;;;;17.48;4.90;;;22.60;44.50;;;;;;5055842;28;20219;-55
2024/01/24 06:23:13;;;;;;;17.00;4.57;;;22.60;44.50;;;;;;5055481;28;20226;-55
2024/01/24 06:25:41;;;;;;;20.13;5.30;;;22.60;44.50;;;;;;5055554;28;20302;-56
2024/01/24 06:28:08;;;;;;;20.45;5.68;;;22.60;44.40;;;;;;5055674;28;20188;-53
2024/01/24 06:30:35;;;;;;;18.15;4.60;;;22.70;44.40;;;;;;5055802;28;20302;-56
2024/01/24 06:33:02;;;;;;;19.20;5.05;;;22.70;44.30;;;;;;5055348;28;20274;-56
2024/01/24 06:35:31;;;;;;;19.15;4.82;;;22.70;44.30;;;;;;5055739;28;20302;-53
2024/01/24 06:37:58;;;;;;;20.45;5.18;;;22.70;44.30;;;;;;5055299;28;20192;-53
2024/01/24 06:40:25;;;;;;;19.52;5.22;;;22.80;44.40;;;;;;5054830;28;20230;-56
2024/01/24 06:42:53;;;;;;;20.73;5.35;;;22.70;45.00;;;;;;5055062;28;20696;-54
2024/01/24 06:45:20;;;;;;;25.45;5.65;;;22.70;44.30;;;;;;5055115;28;20231;-55
2024/01/24 06:47:47;;;;;;;20.30;4.65;;;22.80;44.40;;;;;;5055016;28;20195;-55
2024/01/24 06:50:14;;;;;;;18.92;5.00;;;22.80;44.30;;;;;;5055324;28;20608;-54
2024/01/24 06:52:41;;;;;;;18.73;5.07;;;22.80;44.30;;;;;;5055312;28;20278;-55
2024/01/24 06:55:09;;;;;;;20.23;5.50;;;22.80;44.20;;;;;;5054533;28;20220;-54
2024/01/24 06:57:36;;;;;;;17.48;5.05;;;22.80;44.10;;;;;;5054871;28;20192;-55
2024/01/24 07:00:06;;;;;;;16.17;4.85;;;22.80;44.70;;;;;;5055221;28;20314;-55
2024/01/24 07:02:34;;;;;;;16.55;5.35;;;22.80;44.00;;;;;;5049840;28;20243;-53
2024/01/24 07:05:02;;;;;;;14.70;4.55;;;22.80;44.00;;;;;;5055177;28;20230;-56
2024/01/24 07:07:29;;;;;;;19.35;5.38;;;22.80;44.00;;;;;;5054902;28;20199;-54
2024/01/24 07:09:56;;;;;;;15.13;4.82;;;22.70;44.00;;;;;;5053013;28;20318;-56
2024/01/24 07:12:23;;;;;;;18.58;4.97;;;22.70;44.10;;;;;;5043716;28;20290;-56
2024/01/24 07:14:51;;;;;;;18.15;4.65;;;22.70;44.10;;;;;;5047235;28;20223;-56
2024/01/24 07:17:20;;;;;;;20.58;5.25;;;22.70;44.20;;;;;;5051339;28;20204;-55
2024/01/24 07:19:47;;;;;;;25.10;5.30;;;22.60;44.10;;;;;;5046987;28;20304;-56
2024/01/24 07:22:15;;;;;;;19.23;4.80;;;22.60;44.20;;;;;;5052823;28;20601;-55
2024/01/24 07:24:44;;;;;;;22.50;5.38;;;22.60;44.30;;;;;;5052565;28;20188;-56
2024/01/24 07:27:11;;;;;;;16.48;4.85;;;22.70;45.00;;;;;;5052912;28;20595;-56
2024/01/24 07:29:38;;;;;;;19.85;5.65;;;22.70;44.30;;;;;;5053022;28;20190;-56
2024/01/24 07:32:06;;;;;;;21.95;5.55;;;22.70;44.30;;;;;;5052495;28;20184;-55
2024/01/24 07:34:35;;;;;;;20.95;4.82;;;22.70;44.30;;;;;;5052569;28;20230;-55
2024/01/24 07:37:03;;;;;;;20.77;4.85;;;22.80;44.30;;;;;;5053565;28;20663;-55
2024/01/24 07:39:30;;;;;;;18.88;5.80;;;22.80;44.20;;;;;;5051481;28;20273;-56
2024/01/24 07:41:57;;;;;;;21.65;4.90;;;22.80;44.10;;;;;;5053429;28;20218;-55
2024/01/24 07:44:25;;;;;;;24.13;5.43;;;22.90;44.20;;;;;;5053467;28;20216;-55
2024/01/24 07:46:53;;;;;;;16.83;4.50;;;22.90;44.10;;;;;;5050402;28;20211;-56
2024/01/24 07:49:20;;;;;;;23.05;5.32;;;22.90;44.10;;;;;;5053446;28;20194;-54
2024/01/24 07:51:48;;;;;;;21.10;5.28;;;22.90;44.20;;;;;;5052730;28;20211;-54
2024/01/24 07:54:17;;;;;;;23.17;5.28;;;22.90;44.10;;;;;;5049179;28;20266;-55
2024/01/24 07:56:45;;;;;;;21.73;5.30;;;23.00;44.20;;;;;;5053337;28;20309;-55
2024/01/24 07:59:15;;;;;;;20.85;4.93;;;23.00;44.20;;;;;;5053588;28;20184;-53
2024/01/24 08:01:47;;;;;;;22.85;5.60;;;23.00;44.20;;;;;;5049188;28;20219;-56
2024/01/24 08:04:14;;;;;;;21.08;5.28;;;23.00;44.10;;;;;;5036172;28;20223;-55
2024/01/24 08:06:47;;;;;;;19.40;5.40;;;23.00;44.20;;;;;;5046749;28;20316;-55
2024/01/24 08:09:24;;;;;;;20.75;5.47;;;22.90;44.20;;;;;;5050052;28;20246;-55
2024/01/24 08:11:53;;;;;;;21.23;5.18;;;22.90;44.20;;;;;;5051476;28;20257;-56
2024/01/24 08:14:26;;;;;;;18.60;4.78;;;22.90;44.30;;;;;;5003207;28;20200;-56
2024/01/24 08:17:05;;;;;;;20.63;5.20;;;22.80;44.30;;;;;;5040515;28;20220;-53
2024/01/24 08:19:38;;;;;;;18.90;5.07;;;22.80;44.60;;;;;;5051219;28;20199;-56
2024/01/24 08:22:07;;;;;;;25.33;5.28;;;22.80;44.70;;;;;;5017282;28;20223;-56
2024/01/24 08:24:36;;;;;;;19.13;5.25;;;22.80;44.80;;;;;;5047309;28;20779;-56
2024/01/24 08:27:03;;;;;;;20.25;5.43;;;22.70;44.70;;;;;;5051959;28;20261;-55
2024/01/24 08:29:30;;;;;;;27.63;6.45;;;22.70;44.50;;;;;;5051420;28;20265;-55
2024/01/24 08:31:59;;;;;;;22.95;5.18;;;22.70;44.80;;;;;;5051795;28;20217;-56
2024/01/24 08:34:27;;;;;;;24.27;5.40;;;22.70;45.10;;;;;;5000358;28;20191;-56
2024/01/24 08:36:55;;;;;;;28.17;5.72;;;22.70;45.40;;;;;;5052387;28;20324;-54
2024/01/24 08:39:22;;;;;;;24.58;5.72;;;22.70;45.40;;;;;;5050998;28;20688;-56
2024/01/24 08:42:00;;;;;;;24.85;6.00;;;22.80;45.70;;;;;;5042660;28;20340;-54
2024/01/24 08:44:30;;;;;;;20.58;5.28;;;22.80;45.60;;;;;;4971843;28;21504;-54
2024/01/24 08:46:57;;;;;;;23.10;4.90;;;22.80;45.60;;;;;;5042173;28;20223;-56
2024/01/24 08:49:25;;;;;;;22.35;5.93;;;22.90;45.70;;;;;;5011949;28;20596;-56
2024/01/24 08:51:54;;;;;;;25.33;5.30;;;22.90;45.60;;;;;;4999388;28;20301;-56
2024/01/24 08:54:34;;;;;;;32.55;5.28;;;23.00;45.60;;;;;;4995431;28;20205;-54
2024/01/24 08:57:09;;;;;;;24.60;5.20;;;23.10;45.60;;;;;;5046264;28;20254;-56
2024/01/24 08:59:41;;;;;;;25.77;5.57;;;23.00;45.60;;;;;;4997827;28;20202;-55
2024/01/24 09:02:15;;;;;;;23.92;5.30;;;23.10;45.60;;;;;;4998236;28;20740;-54
2024/01/24 09:04:52;;;;;;;20.45;5.63;;;23.10;45.70;;;;;;5014114;28;20232;-55
2024/01/24 09:07:20;;;;;;;23.13;5.90;;;23.10;45.60;;;;;;5002021;28;20256;-53
2024/01/24 09:09:52;;;;;;;23.48;5.30;;;23.20;45.60;;;;;;5024708;28;20231;-54
2024/01/24 09:12:25;;;;;;;21.45;5.57;;;23.10;45.40;;;;;;5049459;28;20241;-54
2024/01/24 09:14:53;;;;;;;22.10;5.70;;;23.20;45.60;;;;;;4978158;28;20620;-53
2024/01/24 09:17:29;;;;;;;28.17;5.82;;;23.20;45.60;;;;;;4973071;28;20216;-51
2024/01/24 09:19:58;;;;;;;25.27;5.50;;;23.20;45.60;;;;;;5049084;28;20264;-55
2024/01/24 09:22:27;;;;;;;23.25;5.40;;;23.20;45.60;;;;;;5048927;28;20219;-52
2024/01/24 09:25:05;;;;;;;24.98;5.57;;;23.10;45.50;;;;;;4983633;28;20223;-56
2024/01/24 09:27:33;;;;;;;20.15;5.57;;;23.10;45.60;;;;;;4965404;28;20219;-54
2024/01/24 09:30:09;;;;;;;24.65;5.57;;;23.10;45.50;;;;;;5049349;28;20180;-55
2024/01/24 09:32:37;;;;;;;23.20;5.57;;;23.10;45.50;;;;;;5003303;28;20216;-54
2024/01/24 09:35:07;;;;;;;23.67;6.32;;;23.10;45.40;;;;;;4995456;28;20223;-56
2024/01/24 09:37:37;;;;;;;25.20;5.75;;;23.10;45.40;;;;;;5027942;28;20211;-55
2024/01/24 09:40:06;;;;;;;17.85;5.28;;;23.10;45.50;;;;;;5044525;28;20221;-55
2024/01/24 09:42:52;;;;;;;20.55;5.95;;;23.10;45.50;;;;;;5048842;28;20653;-54
2024/01/24 09:45:24;;;;;;;21.70;5.05;;;23.10;45.50;;;;;;5025794;28;20206;-56
2024/01/24 09:50:35;;;;;;;25.58;5.70;;;23.10;45.50;;;;;;5047964;28;20692;-54
2024/01/24 09:53:06;;;;;;;27.52;5.53;;;23.10;45.50;;;;;;4963742;28;20242;-54
2024/01/24 09:55:41;;;;;;;22.58;5.97;;;23.10;45.50;;;;;;5046634;28;20271;-51
2024/01/24 09:58:12;;;;;;;26.77;6.07;;;23.10;45.50;;;;;;5013385;28;20219;-56
2024/01/24 10:00:41;;;;;;;21.67;5.45;;;23.20;45.60;;;;;;5013045;28;20201;-55
2024/01/24 10:03:13;;;;;;;21.33;5.38;;;23.20;45.60;;;;;;5047780;28;20721;-57
2024/01/24 10:05:44;;;;;;;24.05;5.47;;;23.20;45.50;;;;;;5048591;28;20231;-51
2024/01/24 10:08:15;;;;;;;23.08;5.72;;;23.20;45.40;;;;;;4995812;28;20231;-54
2024/01/24 10:10:45;;;;;;;28.05;5.25;;;23.30;45.40;;;;;;4997759;28;20266;-53
2024/01/24 10:13:35;;;;;;;25.35;5.68;;;23.30;45.30;;;;;;5038432;28;20296;-54
2024/01/24 10:16:09;;;;;;;22.38;5.53;;;23.40;45.30;;;;;;5035670;28;20192;-51
2024/01/24 10:18:45;;;;;;;26.75;5.82;;;23.40;45.30;;;;;;5047840;28;20542;-52
2024/01/24 10:21:13;;;;;;;24.58;5.32;;;23.40;45.20;;;;;;5006894;28;20203;-54
2024/01/24 10:23:42;;;;;;;24.33;5.88;;;23.40;45.10;;;;;;5045162;28;20208;-55
2024/01/24 10:26:11;;;;;;;25.85;6.47;;;23.40;45.10;;;;;;5044222;28;20200;-55
2024/01/24 10:28:43;;;;;;;24.85;5.50;;;23.40;45.00;;;;;;4992187;28;20653;-56
2024/01/24 10:31:11;;;;;;;25.20;6.22;;;23.40;45.10;;;;;;5038385;28;20199;-50
2024/01/24 10:33:42;;;;;;;23.83;6.40;;;23.40;45.00;;;;;;5029635;28;20200;-54
2024/01/24 10:36:12;;;;;;;27.38;5.95;;;23.30;45.00;;;;;;4999112;28;20953;-55
2024/01/24 10:38:49;;;;;;;27.63;5.95;;;23.30;45.00;;;;;;5047083;28;20249;-53
2024/01/24 10:41:23;;;;;;;25.63;6.20;;;23.30;45.10;;;;;;5037505;28;20285;-55
2024/01/24 10:44:02;;;;;;;26.27;6.35;;;23.30;45.10;;;;;;5044181;28;20302;-55
2024/01/24 10:46:37;;;;;;;21.20;5.55;;;23.20;45.10;;;;;;5031305;28;20191;-55
2024/01/24 10:49:06;;;;;;;22.50;5.72;;;23.30;45.10;;;;;;5017753;28;20231;-54
2024/01/24 10:51:34;;;;;;;27.63;5.85;;;23.30;45.10;;;;;;5015984;28;20219;-54
2024/01/24 10:54:05;;;;;;;19.75;5.30;;;23.20;45.00;;;;;;5050686;28;20206;-53
2024/01/24 10:56:37;;;;;;;22.17;5.72;;;23.20;45.10;;;;;;5050970;28;20211;-53
2024/01/24 10:59:09;;;;;;;23.13;5.18;;;23.20;45.10;;;;;;4999234;28;20980;-52
2024/01/24 11:01:37;;;;;;;25.63;5.60;;;23.20;45.10;;;;;;5014221;28;20554;-55
2024/01/24 11:04:06;;;;;;;24.77;5.25;;;23.20;45.30;;;;;;5047794;28;20303;-54
2024/01/24 11:06:34;;;;;;;22.98;5.68;;;23.20;45.30;;;;;;4998298;28;20199;-51
2024/01/24 11:09:09;;;;;;;23.80;6.15;;;23.20;45.30;;;;;;5048794;28;20258;-57
2024/01/24 11:11:38;;;;;;;26.55;5.43;;;23.20;45.30;;;;;;5028770;28;20309;-56
2024/01/24 11:14:11;;;;;;;24.42;5.25;;;23.20;45.20;;;;;;5007950;28;20199;-53
2024/01/24 11:16:39;;;;;;;23.83;6.00;;;23.10;45.10;;;;;;5046175;28;20203;-54
2024/01/24 11:19:23;;;;;;;25.20;6.18;;;23.10;45.20;;;;;;5005858;28;20692;-54
2024/01/24 11:21:52;;;;;;;18.00;5.32;;;23.10;45.30;;;;;;5044503;28;20378;-56
2024/01/24 11:24:47;;;;;;;23.15;6.47;;;23.10;45.30;;;;;;5047924;28;20211;-56
2024/01/24 11:27:27;;;;;;;24.55;6.10;;;23.10;45.30;;;;;;5050859;28;20242;-58
2024/01/24 11:30:22;;;;;;;21.85;5.47;;;23.20;45.10;;;;;;5050265;28;20192;-54
2024/01/24 11:33:02;;;;;;;26.30;5.85;;;23.20;45.00;;;;;;5048651;28;20219;-53
2024/01/24 11:35:34;;;;;;;24.02;5.80;;;23.20;44.90;;;;;;5048756;28;20213;-56
2024/01/24 11:38:02;;;;;;;22.58;5.80;;;23.20;44.80;;;;;;5047686;28;20218;-55
2024/01/24 11:40:34;;;;;;;20.75;5.45;;;23.20;44.70;;;;;;5049610;28;20959;-54
2024/01/24 11:43:01;;;;;;;19.73;5.38;;;23.20;44.60;;;;;;5049557;28;20237;-53
2024/01/24 11:45:31;;;;;;;18.73;5.70;;;23.30;44.50;;;;;;5049696;28;20250;-55
2024/01/24 11:47:57;;;;;;;21.25;5.45;;;23.30;44.40;;;;;;5046586;28;20667;-55
2024/01/24 11:50:25;;;;;;;21.80;5.32;;;23.30;44.40;;;;;;5048453;28;20261;-55
2024/01/24 11:52:59;;;;;;;23.48;6.18;;;23.30;44.40;;;;;;5047429;28;20760;-55
2024/01/24 11:55:28;;;;;;;19.05;5.03;;;23.30;44.50;;;;;;5048397;28;20278;-56
2024/01/24 11:57:56;;;;;;;19.40;5.30;;;23.30;44.50;;;;;;5049565;28;20226;-56
2024/01/24 12:00:24;;;;;;;20.98;5.40;;;23.30;44.50;;;;;;5048964;28;20187;-54
2024/01/24 12:02:53;;;;;;;24.65;6.38;;;23.20;44.40;;;;;;5049188;28;20227;-53
2024/01/24 12:05:20;;;;;;;19.63;5.50;;;23.20;44.40;;;;;;5049390;28;20305;-56
2024/01/24 12:07:47;;;;;;;27.10;5.65;;;23.20;44.40;;;;;;5049321;28;20665;-55
2024/01/24 12:10:14;;;;;;;17.60;5.15;;;23.20;44.50;;;;;;5047256;28;20695;-54
2024/01/24 12:12:42;;;;;;;23.40;5.47;;;23.10;44.30;;;;;;5049461;28;20254;-54
2024/01/24 12:15:11;;;;;;;23.25;6.05;;;23.10;44.30;;;;;;5049055;28;20645;-54
2024/01/24 12:17:39;;;;;;;19.90;5.03;;;23.10;44.30;;;;;;5048942;28;20696;-55
2024/01/24 12:20:09;;;;;;;20.73;5.70;;;23.10;44.30;;;;;;5050111;28;20293;-56
2024/01/24 12:22:36;;;;;;;23.80;5.40;;;23.10;44.30;;;;;;5045299;28;20639;-54
2024/01/24 12:25:07;;;;;;;23.75;5.68;;;23.10;44.30;;;;;;5050077;28;20719;-56
2024/01/24 12:27:34;;;;;;;18.27;5.18;;;23.10;44.30;;;;;;5048661;28;20192;-54
2024/01/24 12:30:01;;;;;;;23.38;5.63;;;23.10;44.30;;;;;;5049649;28;20187;-56
2024/01/24 12:32:28;;;;;;;20.17;5.80;;;23.10;44.90;;;;;;5049274;28;20198;-54
2024/01/24 12:34:55;;;;;;;18.90;4.68;;;23.10;44.30;;;;;;5047188;28;20217;-55
2024/01/24 12:37:23;;;;;;;19.35;4.70;;;23.00;44.10;;;;;;5050092;28;20267;-56
2024/01/24 12:39:54;;;;;;;20.85;5.30;;;23.00;44.20;;;;;;5042003;28;20225;-56
2024/01/24 12:42:20;;;;;;;20.13;5.30;;;23.10;44.30;;;;;;5047812;28;20200;-55
2024/01/24 12:44:52;;;;;;;22.33;5.20;;;23.10;44.30;;;;;;5049337;28;20249;-54
2024/01/24 12:47:19;;;;;;;15.35;4.82;;;23.10;44.30;;;;;;5035254;28;20207;-56
2024/01/24 12:49:46;;;;;;;18.13;5.05;;;23.10;44.10;;;;;;5040506;28;20223;-55